MRT weather

Union County Airport
Marysville, Ohio, United States

Public forecast

Using degrees Fahrenheit for public forecast. Weather courtesy of forecast.io.

METAR (pilot weather report)

Retrieved 2019/03/26 05:35 UTC (7 minutes ago):

KMRT 260535Z AUTO 05008KT 10SM CLR M01/M10 A3027 RMK AO2 T10151103

TAF (pilot weather forecast)

Forecast is more than 12 hours old.

Closest forecast is John Glenn Columbus International Airport, 25.1 nm (46.5 km) ESE. Retrieved 2019/03/25 00:36 UTC (1 day ago):

TAF KCMH 252334Z 2600/2624 02012G19KT P6SM SKC FM260100 03008KT P6SM SKC FM261400 04010KT P6SM SKC FM262300 03006KT P6SM FEW250